sensor_id;sensor_type;location;lat;lon;timestamp;pressure;altitude;pressure_sealevel;temperature;humidity
74637;BME280;63141;54.616;39.754;2023-07-02T00:01:56;98532.16;;;21.89;60.71
74637;BME280;63141;54.616;39.754;2023-07-02T00:04:58;98533.97;;;21.89;60.75
74637;BME280;63141;54.616;39.754;2023-07-02T00:08:05;98528.66;;;21.89;60.80
74637;BME280;63141;54.616;39.754;2023-07-02T00:11:06;98525.25;;;21.87;60.70
74637;BME280;63141;54.616;39.754;2023-07-02T00:14:08;98531.41;;;21.87;60.69
74637;BME280;63141;54.616;39.754;2023-07-02T00:17:10;98527.91;;;21.87;60.73
74637;BME280;63141;54.616;39.754;2023-07-02T00:20:14;98528.88;;;21.86;60.77
74637;BME280;63141;54.616;39.754;2023-07-02T00:23:18;98535.03;;;21.86;60.59
74637;BME280;63141;54.616;39.754;2023-07-02T00:26:19;98535.03;;;21.86;60.61
74637;BME280;63141;54.616;39.754;2023-07-02T00:29:20;98530.69;;;21.85;60.75
74637;BME280;63141;54.616;39.754;2023-07-02T00:32:21;98535.88;;;21.87;60.74
74637;BME280;63141;54.616;39.754;2023-07-02T00:35:23;98540.31;;;21.86;60.79
74637;BME280;63141;54.616;39.754;2023-07-02T00:38:24;98544.78;;;21.86;60.66
74637;BME280;63141;54.616;39.754;2023-07-02T00:41:26;98544.78;;;21.86;60.60
74637;BME280;63141;54.616;39.754;2023-07-02T00:44:27;98543.94;;;21.85;60.74
74637;BME280;63141;54.616;39.754;2023-07-02T00:47:32;98537.75;;;21.85;60.67
74637;BME280;63141;54.616;39.754;2023-07-02T00:50:34;98543.06;;;21.85;60.69
74637;BME280;63141;54.616;39.754;2023-07-02T00:53:43;98531.63;;;21.84;60.80
74637;BME280;63141;54.616;39.754;2023-07-02T00:56:45;98536.06;;;21.84;60.70
74637;BME280;63141;54.616;39.754;2023-07-02T00:59:49;98541.38;;;21.84;60.70
74637;BME280;63141;54.616;39.754;2023-07-02T01:02:56;98536.06;;;21.84;60.83
74637;BME280;63141;54.616;39.754;2023-07-02T01:06:00;98547.50;;;21.84;60.74
74637;BME280;63141;54.616;39.754;2023-07-02T01:09:05;98551.97;;;21.84;60.65
74637;BME280;63141;54.616;39.754;2023-07-02T01:12:10;98549.31;;;21.84;60.63
74637;BME280;63141;54.616;39.754;2023-07-02T01:15:11;98561.72;;;21.83;60.64
74637;BME280;63141;54.616;39.754;2023-07-02T01:18:14;98560.00;;;21.82;60.52
74637;BME280;63141;54.616;39.754;2023-07-02T01:21:15;98575.06;;;21.82;60.70
74637;BME280;63141;54.616;39.754;2023-07-02T01:24:17;98575.06;;;21.82;60.79
74637;BME280;63141;54.616;39.754;2023-07-02T01:27:19;98576.03;;;21.81;60.74
74637;BME280;63141;54.616;39.754;2023-07-02T01:30:24;98576.03;;;21.81;60.77
74637;BME280;63141;54.616;39.754;2023-07-02T01:33:28;98575.06;;;21.82;60.73
74637;BME280;63141;54.616;39.754;2023-07-02T01:36:29;98581.31;;;21.81;60.73
74637;BME280;63141;54.616;39.754;2023-07-02T01:39:31;98584.81;;;21.81;60.67
74637;BME280;63141;54.616;39.754;2023-07-02T01:42:33;98590.13;;;21.81;61.00
74637;BME280;63141;54.616;39.754;2023-07-02T01:45:37;98584.81;;;21.81;60.53
74637;BME280;63141;54.616;39.754;2023-07-02T01:48:39;98580.56;;;21.79;60.75
74637;BME280;63141;54.616;39.754;2023-07-02T01:51:40;98584.91;;;21.80;60.67
74637;BME280;63141;54.616;39.754;2023-07-02T01:54:46;98597.31;;;21.79;60.74
74637;BME280;63141;54.616;39.754;2023-07-02T01:57:47;98592.00;;;21.79;60.75
74637;BME280;63141;54.616;39.754;2023-07-02T02:00:49;98594.59;;;21.81;60.89
74637;BME280;63141;54.616;39.754;2023-07-02T02:03:56;98599.88;;;21.81;60.66
74637;BME280;63141;54.616;39.754;2023-07-02T02:06:57;98595.50;;;21.80;60.82
74637;BME280;63141;54.616;39.754;2023-07-02T02:09:58;98595.50;;;21.80;60.78
74637;BME280;63141;54.616;39.754;2023-07-02T02:13:03;98603.47;;;21.80;60.69
74637;BME280;63141;54.616;39.754;2023-07-02T02:16:04;98604.41;;;21.79;60.80
74637;BME280;63141;54.616;39.754;2023-07-02T02:19:06;98606.97;;;21.80;60.82
74637;BME280;63141;54.616;39.754;2023-07-02T02:22:07;98615.78;;;21.81;60.75
74637;BME280;63141;54.616;39.754;2023-07-02T02:25:09;98613.22;;;21.79;60.72
74637;BME280;63141;54.616;39.754;2023-07-02T02:28:10;98608.75;;;21.80;60.81
74637;BME280;63141;54.616;39.754;2023-07-02T02:31:11;98608.75;;;21.80;60.54
74637;BME280;63141;54.616;39.754;2023-07-02T02:34:13;98610.47;;;21.81;60.72
74637;BME280;63141;54.616;39.754;2023-07-02T02:37:14;98613.22;;;21.79;60.69
74637;BME280;63141;54.616;39.754;2023-07-02T02:40:16;98608.75;;;21.80;60.57
74637;BME280;63141;54.616;39.754;2023-07-02T02:43:17;98611.41;;;21.80;60.53
74637;BME280;63141;54.616;39.754;2023-07-02T02:46:21;98615.03;;;21.79;60.45
74637;BME280;63141;54.616;39.754;2023-07-02T02:49:23;98612.38;;;21.79;60.48
74637;BME280;63141;54.616;39.754;2023-07-02T02:52:24;98610.66;;;21.78;60.53
74637;BME280;63141;54.616;39.754;2023-07-02T02:55:26;98613.31;;;21.78;60.58
74637;BME280;63141;54.616;39.754;2023-07-02T02:58:29;98610.66;;;21.78;60.63
74637;BME280;63141;54.616;39.754;2023-07-02T03:01:31;98614.25;;;21.77;60.60
74637;BME280;63141;54.616;39.754;2023-07-02T03:04:37;98612.53;;;21.75;60.58
74637;BME280;63141;54.616;39.754;2023-07-02T03:07:42;98608.28;;;21.73;60.31
74637;BME280;63141;54.616;39.754;2023-07-02T03:10:43;98612.00;;;21.70;60.07
74637;BME280;63141;54.616;39.754;2023-07-02T03:13:45;98612.94;;;21.69;60.19
74637;BME280;63141;54.616;39.754;2023-07-02T03:16:46;98617.38;;;21.69;59.97
74637;BME280;63141;54.616;39.754;2023-07-02T03:19:48;98621.81;;;21.68;59.92
74637;BME280;63141;54.616;39.754;2023-07-02T03:22:49;98618.25;;;21.69;60.02
74637;BME280;63141;54.616;39.754;2023-07-02T03:25:50;98621.81;;;21.68;60.06
74637;BME280;63141;54.616;39.754;2023-07-02T03:28:52;98616.59;;;21.67;60.27
74637;BME280;63141;54.616;39.754;2023-07-02T03:31:53;98624.69;;;21.65;60.41
74637;BME280;63141;54.616;39.754;2023-07-02T03:34:54;98629.22;;;21.63;60.61
74637;BME280;63141;54.616;39.754;2023-07-02T03:37:56;98617.84;;;21.61;60.81
74637;BME280;63141;54.616;39.754;2023-07-02T03:40:58;98621.47;;;21.60;61.05
74637;BME280;63141;54.616;39.754;2023-07-02T03:44:02;98615.22;;;21.61;61.20
74637;BME280;63141;54.616;39.754;2023-07-02T03:47:04;98618.63;;;21.63;61.02
74637;BME280;63141;54.616;39.754;2023-07-02T03:50:06;98617.78;;;21.63;61.09
74637;BME280;63141;54.616;39.754;2023-07-02T03:53:07;98631.03;;;21.63;61.46
74637;BME280;63141;54.616;39.754;2023-07-02T03:56:09;98620.50;;;21.61;61.41
74637;BME280;63141;54.616;39.754;2023-07-02T03:59:13;98619.53;;;21.62;61.45
74637;BME280;63141;54.616;39.754;2023-07-02T04:02:20;98613.31;;;21.63;61.56
74637;BME280;63141;54.616;39.754;2023-07-02T04:05:22;98617.78;;;21.63;61.72
74637;BME280;63141;54.616;39.754;2023-07-02T04:08:28;98623.91;;;21.63;61.89
74637;BME280;63141;54.616;39.754;2023-07-02T04:11:30;98614.38;;;21.61;62.02
74637;BME280;63141;54.616;39.754;2023-07-02T04:14:34;98618.81;;;21.60;62.03
74637;BME280;63141;54.616;39.754;2023-07-02T04:17:38;98625.81;;;21.61;62.08
74637;BME280;63141;54.616;39.754;2023-07-02T04:20:39;98627.50;;;21.62;62.17
74637;BME280;63141;54.616;39.754;2023-07-02T04:23:41;98638.09;;;21.62;62.22
74637;BME280;63141;54.616;39.754;2023-07-02T04:26:42;98647.75;;;21.63;62.44
74637;BME280;63141;54.616;39.754;2023-07-02T04:29:44;98639.81;;;21.63;62.26
74637;BME280;63141;54.616;39.754;2023-07-02T04:32:46;98633.66;;;21.63;62.22
74637;BME280;63141;54.616;39.754;2023-07-02T04:35:48;98634.50;;;21.63;62.46
74637;BME280;63141;54.616;39.754;2023-07-02T04:38:52;98646.81;;;21.64;62.58
74637;BME280;63141;54.616;39.754;2023-07-02T04:41:54;98644.16;;;21.64;62.54
74637;BME280;63141;54.616;39.754;2023-07-02T04:44:55;98645.13;;;21.63;62.71
74637;BME280;63141;54.616;39.754;2023-07-02T04:47:56;98646.81;;;21.64;62.62
74637;BME280;63141;54.616;39.754;2023-07-02T04:50:57;98650.50;;;21.62;62.74
74637;BME280;63141;54.616;39.754;2023-07-02T04:53:59;98654.00;;;21.62;63.05
74637;BME280;63141;54.616;39.754;2023-07-02T04:57:00;98647.00;;;21.61;63.05
74637;BME280;63141;54.616;39.754;2023-07-02T05:00:03;98652.22;;;21.63;63.18
74637;BME280;63141;54.616;39.754;2023-07-02T05:03:10;98659.47;;;21.59;63.23
74637;BME280;63141;54.616;39.754;2023-07-02T05:06:11;98654.94;;;21.61;63.13
74637;BME280;63141;54.616;39.754;2023-07-02T05:09:12;98658.44;;;21.62;63.24
74637;BME280;63141;54.616;39.754;2023-07-02T05:12:17;98659.41;;;21.61;63.23
74637;BME280;63141;54.616;39.754;2023-07-02T05:15:18;98652.31;;;21.61;63.16
74637;BME280;63141;54.616;39.754;2023-07-02T05:18:20;98661.00;;;21.63;63.11
74637;BME280;63141;54.616;39.754;2023-07-02T05:21:22;98657.41;;;21.64;62.92
74637;BME280;63141;54.616;39.754;2023-07-02T05:24:23;98655.50;;;21.66;63.14
74637;BME280;63141;54.616;39.754;2023-07-02T05:27:24;98663.38;;;21.68;63.08
74637;BME280;63141;54.616;39.754;2023-07-02T05:30:26;98655.44;;;21.68;63.00
74637;BME280;63141;54.616;39.754;2023-07-02T05:33:27;98654.47;;;21.69;63.02
74637;BME280;63141;54.616;39.754;2023-07-02T05:36:28;98664.78;;;21.73;62.99
74637;BME280;63141;54.616;39.754;2023-07-02T05:39:36;98654.94;;;21.75;62.71
74637;BME280;63141;54.616;39.754;2023-07-02T05:42:37;98672.56;;;21.77;62.64
74637;BME280;63141;54.616;39.754;2023-07-02T05:45:44;98665.38;;;21.79;62.47
74637;BME280;63141;54.616;39.754;2023-07-02T05:48:45;98666.13;;;21.81;62.32
74637;BME280;63141;54.616;39.754;2023-07-02T05:51:46;98661.56;;;21.83;62.38
74637;BME280;63141;54.616;39.754;2023-07-02T05:54:48;98670.28;;;21.85;62.32
74637;BME280;63141;54.616;39.754;2023-07-02T05:57:49;98668.38;;;21.87;62.16
74637;BME280;63141;54.616;39.754;2023-07-02T06:00:50;98673.69;;;21.87;62.26
74637;BME280;63141;54.616;39.754;2023-07-02T06:03:59;98677.09;;;21.89;62.15
74637;BME280;63141;54.616;39.754;2023-07-02T06:07:01;98686.78;;;21.90;62.03
74637;BME280;63141;54.616;39.754;2023-07-02T06:10:02;98684.13;;;21.90;61.88
74637;BME280;63141;54.616;39.754;2023-07-02T06:13:06;98687.63;;;21.90;61.99
74637;BME280;63141;54.616;39.754;2023-07-02T06:16:08;98687.50;;;21.92;62.03
74637;BME280;63141;54.616;39.754;2023-07-02T06:19:09;98697.25;;;21.91;61.94
74637;BME280;63141;54.616;39.754;2023-07-02T06:22:13;98691.97;;;21.91;62.01
74637;BME280;63141;54.616;39.754;2023-07-02T06:25:14;98703.41;;;21.92;61.85
74637;BME280;63141;54.616;39.754;2023-07-02T06:28:15;98706.94;;;21.92;61.80
74637;BME280;63141;54.616;39.754;2023-07-02T06:31:17;98698.03;;;21.93;61.71
74637;BME280;63141;54.616;39.754;2023-07-02T06:34:18;98698.88;;;21.94;61.75
74637;BME280;63141;54.616;39.754;2023-07-02T06:37:22;98698.88;;;21.94;61.74
74637;BME280;63141;54.616;39.754;2023-07-02T06:40:26;98698.78;;;21.95;61.54
74637;BME280;63141;54.616;39.754;2023-07-02T06:43:31;98705.88;;;21.95;61.71
74637;BME280;63141;54.616;39.754;2023-07-02T06:46:41;98711.06;;;21.96;61.69
74637;BME280;63141;54.616;39.754;2023-07-02T06:49:45;98712.78;;;21.98;61.61
74637;BME280;63141;54.616;39.754;2023-07-02T06:52:49;98707.50;;;21.98;61.68
74637;BME280;63141;54.616;39.754;2023-07-02T06:55:51;98708.34;;;21.98;61.65
74637;BME280;63141;54.616;39.754;2023-07-02T06:59:20;98703.88;;;21.99;61.73
74637;BME280;63141;54.616;39.754;2023-07-02T07:02:33;98708.34;;;21.98;61.62
74637;BME280;63141;54.616;39.754;2023-07-02T07:05:38;98708.34;;;21.98;61.57
74637;BME280;63141;54.616;39.754;2023-07-02T07:08:47;98701.34;;;21.97;61.59
74637;BME280;63141;54.616;39.754;2023-07-02T07:11:51;98715.34;;;21.99;61.62
74637;BME280;63141;54.616;39.754;2023-07-02T07:14:56;98717.13;;;21.99;61.59
74637;BME280;63141;54.616;39.754;2023-07-02T07:18:03;98712.72;;;21.99;61.36
74637;BME280;63141;54.616;39.754;2023-07-02T07:21:05;98709.00;;;22.02;61.41
74637;BME280;63141;54.616;39.754;2023-07-02T07:24:12;98720.25;;;22.05;61.30
74637;BME280;63141;54.616;39.754;2023-07-02T07:27:19;98709.50;;;22.08;61.29
74637;BME280;63141;54.616;39.754;2023-07-02T07:30:21;98719.22;;;22.08;61.38
74637;BME280;63141;54.616;39.754;2023-07-02T07:33:28;98721.97;;;22.06;61.38
74637;BME280;63141;54.616;39.754;2023-07-02T07:36:32;98720.25;;;22.05;61.38
74637;BME280;63141;54.616;39.754;2023-07-02T07:39:36;98728.22;;;22.05;61.26
74637;BME280;63141;54.616;39.754;2023-07-02T07:42:50;98727.28;;;22.06;61.00
74637;BME280;63141;54.616;39.754;2023-07-02T07:45:57;98729.94;;;22.06;61.04
74637;BME280;63141;54.616;39.754;2023-07-02T07:48:59;98732.59;;;22.06;60.92
74637;BME280;63141;54.616;39.754;2023-07-02T07:52:01;98735.25;;;22.06;60.81
74637;BME280;63141;54.616;39.754;2023-07-02T07:55:11;98742.31;;;22.06;60.78
74637;BME280;63141;54.616;39.754;2023-07-02T07:58:15;98741.31;;;22.08;60.58
74637;BME280;63141;54.616;39.754;2023-07-02T08:01:23;98734.28;;;22.07;60.13
74637;BME280;63141;54.616;39.754;2023-07-02T08:04:41;98734.19;;;22.09;60.14
74637;BME280;63141;54.616;39.754;2023-07-02T08:07:42;98741.94;;;22.12;60.00
74637;BME280;63141;54.616;39.754;2023-07-02T08:10:44;98742.72;;;22.14;59.92
74637;BME280;63141;54.616;39.754;2023-07-02T08:14:01;98736.34;;;22.16;60.17
74637;BME280;63141;54.616;39.754;2023-07-02T08:17:17;98744.31;;;22.16;59.88
74637;BME280;63141;54.616;39.754;2023-07-02T08:20:21;98738.25;;;22.14;59.84
74637;BME280;63141;54.616;39.754;2023-07-02T08:23:23;98747.16;;;22.13;59.87
74637;BME280;63141;54.616;39.754;2023-07-02T08:26:27;98735.72;;;22.13;59.88
74637;BME280;63141;54.616;39.754;2023-07-02T08:29:37;98742.78;;;22.12;59.77
74637;BME280;63141;54.616;39.754;2023-07-02T08:32:38;98732.19;;;22.12;59.81
74637;BME280;63141;54.616;39.754;2023-07-02T08:35:42;98726.88;;;22.12;59.75
74637;BME280;63141;54.616;39.754;2023-07-02T08:38:49;98739.22;;;22.13;59.56
74637;BME280;63141;54.616;39.754;2023-07-02T08:41:51;98729.25;;;22.17;59.44
74637;BME280;63141;54.616;39.754;2023-07-02T08:44:59;98731.81;;;22.18;59.43
74637;BME280;63141;54.616;39.754;2023-07-02T08:48:10;98732.56;;;22.21;59.54
74637;BME280;63141;54.616;39.754;2023-07-02T08:51:21;98734.22;;;22.23;59.30
74637;BME280;63141;54.616;39.754;2023-07-02T08:54:22;98733.38;;;22.23;59.27
74637;BME280;63141;54.616;39.754;2023-07-02T08:57:26;98734.13;;;22.25;59.35
74637;BME280;63141;54.616;39.754;2023-07-02T09:00:28;98734.97;;;22.25;59.43
74637;BME280;63141;54.616;39.754;2023-07-02T09:03:49;98731.47;;;22.25;59.58
74637;BME280;63141;54.616;39.754;2023-07-02T09:07:11;98734.00;;;22.26;59.36
74637;BME280;63141;54.616;39.754;2023-07-02T09:10:29;98737.63;;;22.25;59.43
74637;BME280;63141;54.616;39.754;2023-07-02T09:13:48;98745.50;;;22.27;59.17
74637;BME280;63141;54.616;39.754;2023-07-02T09:17:26;98737.53;;;22.27;59.35
74637;BME280;63141;54.616;39.754;2023-07-02T09:20:34;98741.03;;;22.27;59.26
74637;BME280;63141;54.616;39.754;2023-07-02T09:23:41;98748.16;;;22.27;59.33
74637;BME280;63141;54.616;39.754;2023-07-02T09:27:06;98735.94;;;22.24;59.53
74637;BME280;63141;54.616;39.754;2023-07-02T09:30:12;98747.56;;;22.22;59.30
74637;BME280;63141;54.616;39.754;2023-07-02T09:33:25;98749.28;;;22.23;59.05
74637;BME280;63141;54.616;39.754;2023-07-02T09:36:35;98750.97;;;22.24;58.81
74637;BME280;63141;54.616;39.754;2023-07-02T09:39:47;98750.97;;;22.24;58.89
74637;BME280;63141;54.616;39.754;2023-07-02T09:42:59;98745.66;;;22.24;58.44
74637;BME280;63141;54.616;39.754;2023-07-02T09:46:06;98750.13;;;22.23;58.79
74637;BME280;63141;54.616;39.754;2023-07-02T09:49:14;98739.50;;;22.23;58.62
74637;BME280;63141;54.616;39.754;2023-07-02T09:52:19;98744.81;;;22.23;58.56
74637;BME280;63141;54.616;39.754;2023-07-02T09:55:27;98745.66;;;22.24;58.26
74637;BME280;63141;54.616;39.754;2023-07-02T09:58:28;98742.09;;;22.25;58.17
74637;BME280;63141;54.616;39.754;2023-07-02T10:01:32;98738.47;;;22.26;58.25
74637;BME280;63141;54.616;39.754;2023-07-02T10:04:50;98740.19;;;22.27;58.29
74637;BME280;63141;54.616;39.754;2023-07-02T10:08:16;98742.72;;;22.28;58.61
74637;BME280;63141;54.616;39.754;2023-07-02T10:11:33;98746.34;;;22.27;58.48
74637;BME280;63141;54.616;39.754;2023-07-02T10:14:44;98748.16;;;22.27;58.54
74637;BME280;63141;54.616;39.754;2023-07-02T10:18:13;98741.25;;;22.24;58.61
74637;BME280;63141;54.616;39.754;2023-07-02T10:21:20;98750.97;;;22.24;58.55
74637;BME280;63141;54.616;39.754;2023-07-02T10:24:28;98747.56;;;22.22;58.42
74637;BME280;63141;54.616;39.754;2023-07-02T10:27:46;98742.25;;;22.22;58.39
74637;BME280;63141;54.616;39.754;2023-07-02T10:30:54;98745.84;;;22.21;58.34
74637;BME280;63141;54.616;39.754;2023-07-02T10:33:58;98747.72;;;22.18;58.29
74637;BME280;63141;54.616;39.754;2023-07-02T10:37:04;98761.84;;;22.19;58.41
74637;BME280;63141;54.616;39.754;2023-07-02T10:40:12;98752.09;;;22.20;58.04
74637;BME280;63141;54.616;39.754;2023-07-02T10:43:27;98758.16;;;22.22;57.94
74637;BME280;63141;54.616;39.754;2023-07-02T10:46:32;98760.81;;;22.22;57.99
74637;BME280;63141;54.616;39.754;2023-07-02T10:49:39;98757.22;;;22.23;58.02
74637;BME280;63141;54.616;39.754;2023-07-02T10:53:03;98757.31;;;22.21;57.97
74637;BME280;63141;54.616;39.754;2023-07-02T10:56:15;98759.03;;;22.22;58.05
74637;BME280;63141;54.616;39.754;2023-07-02T10:59:24;98761.84;;;22.19;57.98
74637;BME280;63141;54.616;39.754;2023-07-02T11:02:38;98754.75;;;22.20;57.85
74637;BME280;63141;54.616;39.754;2023-07-02T11:05:54;98756.53;;;22.19;57.60
74637;BME280;63141;54.616;39.754;2023-07-02T11:09:16;98760.97;;;22.18;58.03
74637;BME280;63141;54.616;39.754;2023-07-02T11:12:33;98750.38;;;22.18;57.89
74637;BME280;63141;54.616;39.754;2023-07-02T11:15:41;98758.34;;;22.18;57.94
74637;BME280;63141;54.616;39.754;2023-07-02T11:18:48;98758.34;;;22.18;57.82
74637;BME280;63141;54.616;39.754;2023-07-02T11:21:54;98763.63;;;22.18;57.68
74637;BME280;63141;54.616;39.754;2023-07-02T11:25:18;98767.25;;;22.17;57.65
74637;BME280;63141;54.616;39.754;2023-07-02T11:28:21;98760.22;;;22.16;57.76
74637;BME280;63141;54.616;39.754;2023-07-02T11:31:34;98763.84;;;22.15;57.80
74637;BME280;63141;54.616;39.754;2023-07-02T11:34:36;98749.63;;;22.16;57.77
74637;BME280;63141;54.616;39.754;2023-07-02T11:37:47;98753.22;;;22.15;57.86
74637;BME280;63141;54.616;39.754;2023-07-02T11:41:12;98761.06;;;22.17;57.65
74637;BME280;63141;54.616;39.754;2023-07-02T11:44:41;98760.22;;;22.16;57.52
74637;BME280;63141;54.616;39.754;2023-07-02T11:47:54;98762.97;;;22.15;57.64
74637;BME280;63141;54.616;39.754;2023-07-02T11:51:01;98763.84;;;22.15;57.74
74637;BME280;63141;54.616;39.754;2023-07-02T11:54:09;98762.88;;;22.16;56.98
74637;BME280;63141;54.616;39.754;2023-07-02T11:57:25;98771.69;;;22.17;56.16
74637;BME280;63141;54.616;39.754;2023-07-02T12:00:32;98761.94;;;22.17;54.98
74637;BME280;63141;54.616;39.754;2023-07-02T12:03:54;98767.25;;;22.17;54.13
74637;BME280;63141;54.616;39.754;2023-07-02T12:07:01;98768.94;;;22.18;53.75
74637;BME280;63141;54.616;39.754;2023-07-02T12:10:08;98773.31;;;22.20;53.60
74637;BME280;63141;54.616;39.754;2023-07-02T12:13:12;98765.34;;;22.20;53.92
74637;BME280;63141;54.616;39.754;2023-07-02T12:16:19;98764.41;;;22.21;53.56
74637;BME280;63141;54.616;39.754;2023-07-02T12:19:31;98763.47;;;22.22;53.06
74637;BME280;63141;54.616;39.754;2023-07-02T12:22:33;98762.53;;;22.23;52.64
74637;BME280;63141;54.616;39.754;2023-07-02T12:25:40;98775.72;;;22.24;52.15
74637;BME280;63141;54.616;39.754;2023-07-02T12:28:42;98771.34;;;22.23;51.46
74637;BME280;63141;54.616;39.754;2023-07-02T12:31:48;98779.22;;;22.25;51.04
74637;BME280;63141;54.616;39.754;2023-07-02T12:34:58;98777.41;;;22.25;50.59
74637;BME280;63141;54.616;39.754;2023-07-02T12:38:05;98772.94;;;22.26;50.76
74637;BME280;63141;54.616;39.754;2023-07-02T12:41:16;98772.19;;;22.24;50.75
74637;BME280;63141;54.616;39.754;2023-07-02T12:44:17;98781.09;;;22.23;50.87
74637;BME280;63141;54.616;39.754;2023-07-02T12:47:49;98775.09;;;22.19;51.30
74637;BME280;63141;54.616;39.754;2023-07-02T12:50:57;98776.91;;;22.18;51.49
74637;BME280;63141;54.616;39.754;2023-07-02T12:54:02;98778.78;;;22.16;51.70
74637;BME280;63141;54.616;39.754;2023-07-02T12:57:03;98772.72;;;22.14;51.96
74637;BME280;63141;54.616;39.754;2023-07-02T13:00:25;98774.59;;;22.12;52.18
74637;BME280;63141;54.616;39.754;2023-07-02T13:03:44;98769.44;;;22.11;52.11
74637;BME280;63141;54.616;39.754;2023-07-02T13:06:57;98782.84;;;22.08;52.20
74637;BME280;63141;54.616;39.754;2023-07-02T13:10:07;98769.50;;;22.09;52.18
74637;BME280;63141;54.616;39.754;2023-07-02T13:13:17;98774.81;;;22.09;52.08
74637;BME280;63141;54.616;39.754;2023-07-02T13:16:22;98774.06;;;22.07;52.19
74637;BME280;63141;54.616;39.754;2023-07-02T13:19:34;98777.53;;;22.08;52.28
74637;BME280;63141;54.616;39.754;2023-07-02T13:22:47;98786.38;;;22.08;52.21
74637;BME280;63141;54.616;39.754;2023-07-02T13:25:55;98786.47;;;22.07;52.05
74637;BME280;63141;54.616;39.754;2023-07-02T13:29:05;98781.16;;;22.07;52.15
74637;BME280;63141;54.616;39.754;2023-07-02T13:32:15;98779.56;;;22.04;52.31
74637;BME280;63141;54.616;39.754;2023-07-02T13:35:32;98784.84;;;22.04;52.21
74637;BME280;63141;54.616;39.754;2023-07-02T13:38:41;98788.44;;;22.03;52.08
74637;BME280;63141;54.616;39.754;2023-07-02T13:41:51;98780.47;;;22.03;52.01
74637;BME280;63141;54.616;39.754;2023-07-02T13:44:55;98784.84;;;22.04;51.84
74637;BME280;63141;54.616;39.754;2023-07-02T13:48:05;98782.19;;;22.04;52.05
74637;BME280;63141;54.616;39.754;2023-07-02T13:51:18;98782.19;;;22.04;51.91
74637;BME280;63141;54.616;39.754;2023-07-02T13:54:28;98781.34;;;22.04;51.96
74637;BME280;63141;54.616;39.754;2023-07-02T13:57:47;98783.13;;;22.03;51.78
74637;BME280;63141;54.616;39.754;2023-07-02T14:01:06;98778.78;;;22.02;52.00
74637;BME280;63141;54.616;39.754;2023-07-02T14:04:18;98784.09;;;22.02;51.75
74637;BME280;63141;54.616;39.754;2023-07-02T14:07:35;98784.09;;;22.02;51.76
74637;BME280;63141;54.616;39.754;2023-07-02T14:10:39;98788.53;;;22.02;51.76
74637;BME280;63141;54.616;39.754;2023-07-02T14:13:56;98777.06;;;22.01;51.73
74637;BME280;63141;54.616;39.754;2023-07-02T14:17:03;98782.38;;;22.01;51.84
74637;BME280;63141;54.616;39.754;2023-07-02T14:20:28;98779.72;;;22.01;51.74
74637;BME280;63141;54.616;39.754;2023-07-02T14:23:32;98782.47;;;22.00;52.01
74637;BME280;63141;54.616;39.754;2023-07-02T14:26:51;98794.91;;;21.99;51.74
74637;BME280;63141;54.616;39.754;2023-07-02T14:29:53;98789.59;;;21.99;51.49
74637;BME280;63141;54.616;39.754;2023-07-02T14:33:04;98792.25;;;21.99;51.49
74637;BME280;63141;54.616;39.754;2023-07-02T14:36:14;98790.53;;;21.98;51.30
74637;BME280;63141;54.616;39.754;2023-07-02T14:39:24;98786.19;;;21.97;51.10
74637;BME280;63141;54.616;39.754;2023-07-02T14:42:29;98792.31;;;21.98;51.21
74637;BME280;63141;54.616;39.754;2023-07-02T14:45:46;98793.16;;;21.98;51.13
74637;BME280;63141;54.616;39.754;2023-07-02T14:48:50;98783.53;;;21.97;50.93
74637;BME280;63141;54.616;39.754;2023-07-02T14:52:06;98786.25;;;21.95;50.99
74637;BME280;63141;54.616;39.754;2023-07-02T14:55:19;98791.47;;;21.97;51.00
74637;BME280;63141;54.616;39.754;2023-07-02T14:58:30;98788.91;;;21.95;50.92
74637;BME280;63141;54.616;39.754;2023-07-02T15:01:52;98786.19;;;21.97;50.64
74637;BME280;63141;54.616;39.754;2023-07-02T15:05:20;98782.75;;;21.95;50.48
74637;BME280;63141;54.616;39.754;2023-07-02T15:08:24;98791.47;;;21.97;50.81
74637;BME280;63141;54.616;39.754;2023-07-02T15:11:37;98790.53;;;21.98;50.80
74637;BME280;63141;54.616;39.754;2023-07-02T15:14:38;98794.91;;;21.99;50.75
74637;BME280;63141;54.616;39.754;2023-07-02T15:17:45;98788.81;;;21.97;50.93
74637;BME280;63141;54.616;39.754;2023-07-02T15:20:59;98795.81;;;21.98;50.78
74637;BME280;63141;54.616;39.754;2023-07-02T15:24:12;98787.88;;;21.98;50.94
74637;BME280;63141;54.616;39.754;2023-07-02T15:27:20;98796.59;;;22.00;50.84
74637;BME280;63141;54.616;39.754;2023-07-02T15:30:27;98800.56;;;22.07;50.65
74637;BME280;63141;54.616;39.754;2023-07-02T15:33:40;98800.97;;;22.15;50.31
74637;BME280;63141;54.616;39.754;2023-07-02T15:37:14;98805.53;;;22.28;50.15
74637;BME280;63141;54.616;39.754;2023-07-02T15:40:25;98810.47;;;22.34;49.92
74637;BME280;63141;54.616;39.754;2023-07-02T15:43:32;98809.13;;;22.41;49.81
74637;BME280;63141;54.616;39.754;2023-07-02T15:46:49;98811.50;;;22.46;49.54
74637;BME280;63141;54.616;39.754;2023-07-02T15:49:56;98821.06;;;22.48;49.63
74637;BME280;63141;54.616;39.754;2023-07-02T15:53:12;98816.53;;;22.50;49.59
74637;BME280;63141;54.616;39.754;2023-07-02T15:56:24;98822.94;;;22.61;49.76
74637;BME280;63141;54.616;39.754;2023-07-02T15:59:34;98823.88;;;22.74;49.61
74637;BME280;63141;54.616;39.754;2023-07-02T16:02:54;98825.03;;;22.84;49.50
74637;BME280;63141;54.616;39.754;2023-07-02T16:06:17;98821.97;;;22.90;49.14
74637;BME280;63141;54.616;39.754;2023-07-02T16:09:22;98813.81;;;22.93;49.58
74637;BME280;63141;54.616;39.754;2023-07-02T16:12:23;98817.13;;;22.97;49.42
74637;BME280;63141;54.616;39.754;2023-07-02T16:15:30;98816.00;;;23.01;49.43
74637;BME280;63141;54.616;39.754;2023-07-02T16:18:35;98824.06;;;22.99;49.71